Résultats de la compétition "Demi Finale Nord Est" du 15-06-2008 organisée par le club 8809
     
  Télécharger le fichier CSV.  
     
     

 Circuit "G"

Licence Nom Prénom Temps CN
précédent
Score sur
la course
Différence
2401DEVILLENelly0:58:2941494305+156
1448KENANEAbdelkader1:00:2737454165+420
2716HABERKORNDidier1:04:1240523922-130
2611AMIOTJacques1:04:4832413886+645
1380DIEUDONNEMadeleine1:14:2641773383-794
295PEETERSSimone1:14:5930233358+335
6491ROBERTFrancoise1:18:2234873213-274
2557VOGTChristiane1:18:4535333197-336
3179RICHARDClaudette1:29:1928552819-36
701ABISSEGisele1:29:3631022810-292
2446RIFFARDM-Lucie1:30:0332432796-447
352MULLERRaymond1:32:3828392718-121
1883HITZRene1:33:4323842687+303
1443BEGUINOTJacques1:38:4029842552-432
368VESCOVOOdile1:48:0221062331+225
15630DIRRINGERM-Claude1:49:0227322309-423
2413ROLLETM-Madeleine1:56:2620422163+121
725LAURENTTherese1:57:5425872136-451
3185PASCAUDClaire2:02:4725282051-477
15894LUDEWIG-JAMESCarol2:06:1121441995-149
11368LAUNEYNoella2:09:3421201943-177
8954BASTIEN-FATHNicole2:17:2920121831-181
16634BAUDOINAnnie2:21:0120691786-283
1444BEGUINOTM-Louise2:33:4017621639-123

  Indice de confiance du circuit (moyenne des différences entre CN et score sur la course des 3 à 10 premiers) : 249






 Retour